Time;durP1;ratioP1;P1;durP2;ratioP2;P2;SDS_P1;SDS_P2;PMS_P1;PMS_P2;Temp;Humidity;BMP_temperature;BMP_pressure;BME280_temperature;BME280_humidity;BME280_pressure;Samples;Min_cycle;Max_cycle;Signal;HPM_P1;HPM_P2
2022/03/08 04:00:45;;;;;;;21.08;9.60;;;0.30;99.90;;;;;;5815983;23;20478;-87
2022/03/08 04:03:10;;;;;;;19.98;9.25;;;0.30;99.90;;;;;;4923364;29;20130;-85
2022/03/08 04:05:36;;;;;;;24.33;9.80;;;0.30;99.90;;;;;;4907862;29;20068;-86
2022/03/08 04:08:02;;;;;;;22.27;9.95;;;0.30;99.90;;;;;;4907595;29;20043;-85
2022/03/08 04:10:27;;;;;;;19.80;9.70;;;0.30;99.90;;;;;;4922961;29;20043;-86
2022/03/08 04:12:53;;;;;;;20.95;9.85;;;0.40;99.90;;;;;;4938893;29;20043;-85
2022/03/08 04:15:18;;;;;;;21.00;10.13;;;0.30;99.90;;;;;;4923127;29;20075;-83
2022/03/08 04:17:44;;;;;;;21.95;10.48;;;0.30;99.90;;;;;;4940254;29;20545;-84
2022/03/08 04:20:11;;;;;;;19.08;9.32;;;0.30;99.90;;;;;;4922366;29;20052;-87
2022/03/08 04:22:37;;;;;;;21.33;10.45;;;0.30;99.90;;;;;;4938909;29;20051;-86
2022/03/08 04:25:04;;;;;;;19.20;9.82;;;0.30;99.90;;;;;;4923366;29;20103;-87
2022/03/08 04:27:29;;;;;;;18.98;9.70;;;0.30;99.90;;;;;;4940270;29;20044;-85
2022/03/08 04:29:55;;;;;;;20.02;10.00;;;0.20;99.90;;;;;;4922931;29;20047;-85
2022/03/08 04:32:21;;;;;;;20.52;9.30;;;0.20;99.90;;;;;;4922541;29;20051;-86
2022/03/08 04:34:46;;;;;;;21.73;10.38;;;0.20;99.90;;;;;;4907021;29;20024;-87
2022/03/08 04:37:12;;;;;;;23.23;11.10;;;0.20;99.90;;;;;;4921989;29;20502;-87
2022/03/08 04:39:38;;;;;;;21.65;10.25;;;0.20;99.90;;;;;;4922645;29;20478;-86
2022/03/08 04:42:04;;;;;;;23.48;10.30;;;0.10;99.90;;;;;;4939249;29;20045;-86
2022/03/08 04:44:29;;;;;;;21.20;9.95;;;0.10;99.90;;;;;;4922645;29;20055;-86
2022/03/08 04:46:55;;;;;;;24.70;11.52;;;0.10;99.90;;;;;;4922606;29;20036;-86
2022/03/08 04:49:20;;;;;;;24.58;10.95;;;0.10;99.90;;;;;;4922774;29;20082;-86
2022/03/08 04:51:46;;;;;;;25.50;11.13;;;0.10;99.90;;;;;;4922779;29;20087;-86
2022/03/08 04:54:12;;;;;;;21.67;10.48;;;0.10;99.90;;;;;;4922337;29;20152;-86
2022/03/08 04:56:37;;;;;;;22.70;10.48;;;0.00;99.90;;;;;;4938631;29;20027;-86
2022/03/08 04:59:04;;;;;;;21.45;10.52;;;0.00;99.90;;;;;;4921681;29;20074;-86
2022/03/08 05:01:30;;;;;;;21.10;11.32;;;0.10;99.90;;;;;;4922500;29;20114;-86
2022/03/08 05:03:55;;;;;;;22.20;11.13;;;0.00;99.90;;;;;;4921614;29;20047;-86
2022/03/08 05:06:21;;;;;;;25.92;11.20;;;0.00;99.90;;;;;;4922162;29;20043;-86
2022/03/08 05:08:47;;;;;;;23.38;10.85;;;0.00;99.90;;;;;;4922039;29;20048;-85
2022/03/08 05:11:13;;;;;;;23.60;11.10;;;0.00;99.90;;;;;;4922055;29;20114;-85
2022/03/08 05:13:38;;;;;;;24.70;11.55;;;0.00;99.90;;;;;;4922047;29;20048;-85
2022/03/08 05:16:05;;;;;;;28.45;11.63;;;0.00;99.90;;;;;;4922427;29;20038;-88
2022/03/08 05:18:31;;;;;;;23.80;12.23;;;0.00;99.90;;;;;;4938137;29;20036;-86
2022/03/08 05:20:57;;;;;;;24.50;12.35;;;0.00;99.90;;;;;;4921822;29;20050;-85
2022/03/08 05:23:22;;;;;;;24.42;10.52;;;0.00;99.90;;;;;;4938581;29;20487;-86
2022/03/08 05:25:48;;;;;;;24.73;11.93;;;0.00;99.90;;;;;;4921302;29;20103;-86
2022/03/08 05:28:14;;;;;;;24.05;11.40;;;0.00;99.90;;;;;;4921366;29;20134;-85
2022/03/08 05:30:40;;;;;;;22.05;11.20;;;0.00;99.90;;;;;;4937683;29;20040;-86
2022/03/08 05:33:06;;;;;;;26.70;11.68;;;0.00;99.90;;;;;;4922066;29;20123;-87
2022/03/08 05:35:31;;;;;;;24.05;10.98;;;0.00;99.90;;;;;;4943369;29;20044;-87
2022/03/08 05:37:57;;;;;;;25.45;11.88;;;0.00;99.90;;;;;;4926038;29;20048;-86
2022/03/08 05:40:23;;;;;;;22.45;10.30;;;0.00;99.90;;;;;;4925628;29;20048;-87
2022/03/08 05:42:48;;;;;;;23.55;12.05;;;0.00;99.90;;;;;;4925532;29;20039;-86
2022/03/08 05:45:15;;;;;;;23.33;11.32;;;0.00;99.90;;;;;;4942346;29;20172;-86
2022/03/08 05:47:41;;;;;;;25.35;11.55;;;0.00;99.90;;;;;;4925972;29;20195;-86
2022/03/08 05:50:08;;;;;;;23.63;11.50;;;0.00;99.90;;;;;;4942271;29;20044;-87
2022/03/08 05:52:34;;;;;;;23.83;11.75;;;0.00;99.90;;;;;;4941637;29;20051;-86
2022/03/08 05:55:00;;;;;;;24.38;10.80;;;0.00;99.90;;;;;;4925461;29;20040;-86
2022/03/08 05:57:25;;;;;;;24.75;12.00;;;0.00;99.90;;;;;;4925533;29;20059;-87
2022/03/08 05:59:51;;;;;;;26.42;11.70;;;0.00;99.90;;;;;;4926116;29;20053;-86
2022/03/08 06:02:18;;;;;;;25.65;11.15;;;0.00;99.90;;;;;;4925571;29;20031;-87
2022/03/08 06:04:43;;;;;;;23.17;11.07;;;0.00;99.90;;;;;;4942609;29;20029;-86
2022/03/08 06:07:09;;;;;;;23.27;11.68;;;0.00;99.90;;;;;;4925504;29;20107;-86
2022/03/08 06:09:35;;;;;;;27.15;12.10;;;0.00;99.90;;;;;;4924694;29;20083;-87
2022/03/08 06:12:03;;;;;;;23.95;11.98;;;0.00;99.90;;;;;;4924336;29;20477;-86
2022/03/08 06:14:29;;;;;;;24.83;11.88;;;0.00;99.90;;;;;;4942056;29;20036;-86
2022/03/08 06:16:55;;;;;;;26.88;12.15;;;0.00;99.90;;;;;;4942658;29;20111;-85
2022/03/08 06:19:21;;;;;;;24.13;11.32;;;-0.10;99.90;;;;;;4925105;29;20517;-86
2022/03/08 06:21:46;;;;;;;24.70;11.73;;;-0.10;99.90;;;;;;4924624;29;20450;-87
2022/03/08 06:24:12;;;;;;;23.55;12.15;;;-0.10;99.90;;;;;;4942184;29;20036;-86
2022/03/08 06:26:38;;;;;;;23.67;11.02;;;-0.10;99.90;;;;;;4924643;29;20032;-87
2022/03/08 06:29:04;;;;;;;23.45;11.23;;;-0.10;99.90;;;;;;4949247;29;20086;-87
2022/03/08 06:31:30;;;;;;;22.02;11.20;;;-0.10;99.90;;;;;;4955711;29;20039;-86
2022/03/08 06:33:56;;;;;;;24.88;12.10;;;-0.10;99.90;;;;;;4944654;29;20047;-86
2022/03/08 06:36:21;;;;;;;24.42;11.70;;;-0.10;99.90;;;;;;4952022;29;20127;-85
2022/03/08 06:38:47;;;;;;;22.88;11.93;;;-0.10;99.90;;;;;;4926146;29;20040;-87
2022/03/08 06:41:13;;;;;;;27.30;12.65;;;-0.10;99.90;;;;;;4942159;29;20458;-86
2022/03/08 06:43:39;;;;;;;23.15;11.77;;;0.00;99.90;;;;;;4924690;29;20051;-87
2022/03/08 06:46:05;;;;;;;21.58;10.98;;;-0.10;99.90;;;;;;4923788;29;20044;-87
2022/03/08 06:48:30;;;;;;;26.88;12.98;;;0.00;99.90;;;;;;4923634;29;20070;-87
2022/03/08 06:50:56;;;;;;;25.60;11.75;;;0.00;99.90;;;;;;4941566;29;20027;-87
2022/03/08 06:53:22;;;;;;;25.70;12.32;;;0.00;99.90;;;;;;4924687;29;20040;-87
2022/03/08 06:55:48;;;;;;;26.23;12.77;;;0.10;99.90;;;;;;4923581;29;20058;-86
2022/03/08 06:58:13;;;;;;;25.27;11.70;;;0.10;99.90;;;;;;4940531;29;20044;-86
2022/03/08 07:00:39;;;;;;;23.88;11.75;;;0.20;99.90;;;;;;4941864;29;20040;-85
2022/03/08 07:03:05;;;;;;;21.55;11.10;;;0.20;99.90;;;;;;4924420;29;20066;-82
2022/03/08 07:05:30;;;;;;;25.15;12.63;;;0.30;99.90;;;;;;4923641;29;20043;-85
2022/03/08 07:07:56;;;;;;;25.63;12.95;;;0.30;99.90;;;;;;4923759;29;20481;-85
2022/03/08 07:10:21;;;;;;;24.65;12.00;;;0.40;99.90;;;;;;4923543;29;20051;-85
2022/03/08 07:12:47;;;;;;;25.10;11.48;;;0.40;99.90;;;;;;4923987;29;20051;-85
2022/03/08 07:15:14;;;;;;;21.65;11.70;;;0.50;99.90;;;;;;4940559;29;20051;-86
2022/03/08 07:17:44;;;;;;;22.23;11.70;;;0.50;99.90;;;;;;4922527;29;20467;-85
2022/03/08 07:20:11;;;;;;;24.23;11.80;;;0.60;99.90;;;;;;4921769;29;20043;-87
2022/03/08 07:22:36;;;;;;;20.83;10.43;;;0.70;99.90;;;;;;4939339;29;20425;-85
2022/03/08 07:25:03;;;;;;;23.38;11.43;;;0.70;99.90;;;;;;4922351;29;20043;-86
2022/03/08 07:27:28;;;;;;;20.70;11.05;;;0.80;99.90;;;;;;4921603;29;20063;-85
2022/03/08 07:29:54;;;;;;;18.88;10.02;;;0.90;99.90;;;;;;4920790;29;20044;-78
2022/03/08 07:32:20;;;;;;;21.17;11.05;;;0.90;99.90;;;;;;4923239;29;20044;-86
2022/03/08 07:34:45;;;;;;;23.05;11.75;;;1.00;99.90;;;;;;4923760;29;20079;-82
2022/03/08 07:37:11;;;;;;;20.35;11.10;;;1.10;99.90;;;;;;4893242;29;20039;-86
2022/03/08 07:39:37;;;;;;;20.92;9.63;;;1.10;99.90;;;;;;4923983;29;20048;-78
2022/03/08 07:42:03;;;;;;;20.67;10.43;;;1.20;99.90;;;;;;4940755;29;20075;-87
2022/03/08 07:44:28;;;;;;;18.73;9.75;;;1.20;99.90;;;;;;4923656;29;20071;-87
2022/03/08 07:46:55;;;;;;;16.63;9.30;;;1.30;99.90;;;;;;4924656;29;20102;-86
2022/03/08 07:49:21;;;;;;;18.83;10.00;;;1.40;99.90;;;;;;4923060;29;20055;-86
2022/03/08 07:51:47;;;;;;;19.45;10.38;;;1.50;99.90;;;;;;4922893;29;20086;-86
2022/03/08 07:54:13;;;;;;;20.25;10.63;;;1.60;99.90;;;;;;4923619;29;20486;-86
2022/03/08 07:56:39;;;;;;;21.38;10.32;;;1.70;99.90;;;;;;4922343;29;20059;-85
2022/03/08 07:59:05;;;;;;;21.45;10.68;;;1.80;99.90;;;;;;4922865;29;20040;-85
2022/03/08 08:01:31;;;;;;;21.02;10.20;;;1.90;99.90;;;;;;4939484;29;20044;-87
2022/03/08 08:03:56;;;;;;;17.20;9.73;;;2.00;99.90;;;;;;4922949;29;20039;-86
2022/03/08 08:06:22;;;;;;;16.38;9.25;;;2.10;99.90;;;;;;4906348;29;20069;-87
2022/03/08 08:08:48;;;;;;;16.30;9.70;;;2.20;99.90;;;;;;4907074;29;20059;-86
2022/03/08 08:11:14;;;;;;;18.65;9.45;;;2.30;99.90;;;;;;4922498;29;20051;-86
2022/03/08 08:13:40;;;;;;;17.70;9.50;;;2.30;99.90;;;;;;4907557;29;20469;-86
2022/03/08 08:16:06;;;;;;;15.30;9.00;;;2.40;99.90;;;;;;4922428;29;20078;-87
2022/03/08 08:18:31;;;;;;;20.27;9.02;;;2.50;99.90;;;;;;4922608;29;20336;-87
2022/03/08 08:20:57;;;;;;;15.77;8.68;;;2.60;99.90;;;;;;4922747;29;20040;-87
2022/03/08 08:23:23;;;;;;;17.65;9.48;;;2.70;99.90;;;;;;4922399;29;20054;-86
2022/03/08 08:25:49;;;;;;;19.38;8.93;;;2.80;99.90;;;;;;4906889;29;20469;-87
2022/03/08 08:28:15;;;;;;;17.27;9.43;;;2.90;99.90;;;;;;4921145;29;20047;-86
2022/03/08 08:30:41;;;;;;;16.63;9.45;;;3.00;99.90;;;;;;4922468;29;20091;-87
2022/03/08 08:33:07;;;;;;;18.25;9.00;;;3.10;99.90;;;;;;4922355;29;20043;-86
2022/03/08 08:35:33;;;;;;;15.75;8.57;;;3.30;99.90;;;;;;4922151;29;20058;-86
2022/03/08 08:37:58;;;;;;;17.58;9.13;;;3.40;99.90;;;;;;4922342;29;20059;-85
2022/03/08 08:40:25;;;;;;;15.00;8.13;;;3.60;99.90;;;;;;4906617;29;20062;-86
2022/03/08 08:42:50;;;;;;;16.63;8.25;;;3.70;99.90;;;;;;4940048;29;20050;-86
2022/03/08 08:45:16;;;;;;;14.82;8.18;;;3.80;99.90;;;;;;4922565;29;20099;-87
2022/03/08 08:47:42;;;;;;;12.38;7.45;;;4.00;99.90;;;;;;4939182;29;20090;-87
2022/03/08 08:50:08;;;;;;;14.57;8.45;;;4.10;99.90;;;;;;4905552;29;20130;-87
2022/03/08 08:52:33;;;;;;;13.45;7.85;;;4.20;99.90;;;;;;4921258;29;20075;-85
2022/03/08 08:54:59;;;;;;;13.48;7.68;;;4.30;99.90;;;;;;4906589;29;20052;-85
2022/03/08 08:57:25;;;;;;;15.55;8.15;;;4.40;99.90;;;;;;4922644;29;20058;-87
2022/03/08 08:59:51;;;;;;;12.07;7.30;;;4.50;99.90;;;;;;4906399;29;20494;-86
2022/03/08 09:02:17;;;;;;;12.82;7.47;;;4.70;99.90;;;;;;4921914;29;20051;-86
2022/03/08 09:04:43;;;;;;;13.27;7.82;;;4.80;99.90;;;;;;4906737;29;20047;-88
2022/03/08 09:07:08;;;;;;;12.38;7.68;;;5.00;99.90;;;;;;4921866;29;20035;-84
2022/03/08 09:09:34;;;;;;;12.27;7.25;;;5.20;99.90;;;;;;4921366;29;20040;-87
2022/03/08 09:12:00;;;;;;;14.30;7.53;;;5.40;99.90;;;;;;4921347;29;20059;-86
2022/03/08 09:14:26;;;;;;;12.75;6.88;;;5.50;99.90;;;;;;4921193;29;20040;-88
2022/03/08 09:16:52;;;;;;;11.57;6.88;;;5.70;99.90;;;;;;4921312;29;20055;-86
2022/03/08 09:19:17;;;;;;;11.82;7.07;;;5.90;99.90;;;;;;4921130;29;20414;-86
2022/03/08 09:21:43;;;;;;;12.88;7.10;;;6.00;99.90;;;;;;4921835;29;20066;-85
2022/03/08 09:24:09;;;;;;;11.88;6.95;;;6.20;99.90;;;;;;4938628;29;20047;-87
2022/03/08 09:26:35;;;;;;;14.15;7.32;;;6.40;99.90;;;;;;4921674;29;20146;-86
2022/03/08 09:29:00;;;;;;;10.57;6.47;;;6.60;99.90;;;;;;4922405;29;20027;-86
2022/03/08 09:31:26;;;;;;;12.27;7.28;;;6.80;99.90;;;;;;4938937;29;20151;-85
2022/03/08 09:33:52;;;;;;;9.93;5.88;;;7.00;99.90;;;;;;4922407;29;20098;-85
2022/03/08 09:36:17;;;;;;;9.25;6.07;;;7.10;99.90;;;;;;4921018;29;20044;-86
2022/03/08 09:38:44;;;;;;;10.93;6.32;;;7.20;99.90;;;;;;4920996;29;20095;-84
2022/03/08 09:41:11;;;;;;;9.35;6.28;;;7.30;99.90;;;;;;4921286;29;20038;-87
2022/03/08 09:43:38;;;;;;;9.32;5.72;;;7.40;99.90;;;;;;4920714;29;20049;-86
2022/03/08 09:46:05;;;;;;;10.48;5.90;;;7.60;99.90;;;;;;4921411;29;20054;-85
2022/03/08 09:48:31;;;;;;;8.77;5.70;;;7.70;99.90;;;;;;4920893;29;20048;-87
2022/03/08 09:51:04;;;;;;;10.60;5.55;;;7.70;99.90;;;;;;4938010;29;20040;-85
2022/03/08 09:53:31;;;;;;;8.80;5.40;;;7.80;97.80;;;;;;4905806;29;20046;-86
2022/03/08 09:56:02;;;;;;;9.88;6.13;;;7.90;98.60;;;;;;4938507;29;20039;-87
2022/03/08 09:58:28;;;;;;;9.57;5.82;;;7.90;97.20;;;;;;4938017;29;20082;-86
2022/03/08 10:00:55;;;;;;;9.68;5.75;;;7.90;97.90;;;;;;4921118;29;20059;-86
2022/03/08 10:03:39;;;;;;;10.38;6.32;;;8.10;97.80;;;;;;4937214;29;20047;-85
2022/03/08 10:06:06;;;;;;;10.27;6.25;;;8.20;97.10;;;;;;4921495;29;20047;-85
2022/03/08 10:08:32;;;;;;;10.57;6.38;;;8.30;98.90;;;;;;4905610;29;20051;-85
2022/03/08 10:11:03;;;;;;;10.25;6.22;;;8.40;97.70;;;;;;4904271;29;20439;-87
2022/03/08 10:13:33;;;;;;;10.07;6.35;;;8.50;97.00;;;;;;4905023;29;20050;-87
2022/03/08 10:16:06;;;;;;;13.30;6.45;;;8.70;97.70;;;;;;4920994;29;20039;-86
2022/03/08 10:18:34;;;;;;;9.75;6.47;;;8.70;95.20;;;;;;4905294;29;20047;-86
2022/03/08 10:20:59;;;;;;;10.88;6.20;;;8.70;94.20;;;;;;4923724;29;20043;-86
2022/03/08 10:23:25;;;;;;;13.85;7.15;;;8.70;94.60;;;;;;4924904;29;20068;-86
2022/03/08 10:25:51;;;;;;;6.75;4.47;;;8.70;93.10;;;;;;4926133;29;20039;-85
2022/03/08 10:28:16;;;;;;;10.57;6.00;;;8.80;93.00;;;;;;4924116;29;20075;-85
2022/03/08 10:30:45;;;;;;;11.15;6.38;;;8.80;92.60;;;;;;4942120;29;20035;-87
2022/03/08 10:33:12;;;;;;;9.40;6.32;;;8.80;91.20;;;;;;4940025;29;20055;-85
2022/03/08 10:35:42;;;;;;;11.95;6.18;;;8.90;90.30;;;;;;4932340;29;20044;-88
2022/03/08 10:38:13;;;;;;;9.18;5.65;;;9.00;91.30;;;;;;4932299;29;20036;-86
2022/03/08 10:40:41;;;;;;;9.70;5.93;;;9.10;90.00;;;;;;4931504;29;20083;-86
2022/03/08 10:43:09;;;;;;;9.73;5.68;;;9.20;86.30;;;;;;4909978;29;20102;-87
2022/03/08 10:45:39;;;;;;;9.57;5.32;;;9.30;86.00;;;;;;4924590;29;20086;-85
2022/03/08 10:48:06;;;;;;;8.63;5.75;;;9.40;87.40;;;;;;4925292;29;20043;-84
2022/03/08 10:50:34;;;;;;;10.32;6.05;;;9.60;85.40;;;;;;4925323;29;20052;-86
2022/03/08 10:53:02;;;;;;;8.85;5.40;;;9.70;84.60;;;;;;4924501;29;20043;-86
2022/03/08 10:55:30;;;;;;;8.13;4.95;;;9.80;83.60;;;;;;4923816;29;20106;-87
2022/03/08 10:57:58;;;;;;;7.47;5.03;;;9.90;79.60;;;;;;4923639;29;20039;-85
2022/03/08 11:00:32;;;;;;;8.27;5.15;;;9.90;78.30;;;;;;4940906;29;20076;-88
2022/03/08 11:03:06;;;;;;;7.70;5.45;;;10.00;77.50;;;;;;4940833;29;20417;-87
2022/03/08 11:05:43;;;;;;;8.15;4.70;;;10.00;73.00;;;;;;4923697;29;20043;-87
2022/03/08 11:08:10;;;;;;;8.23;5.55;;;9.90;71.10;;;;;;4924479;29;20043;-87
2022/03/08 11:10:37;;;;;;;8.45;5.10;;;9.90;71.30;;;;;;4941232;29;20039;-86
2022/03/08 11:13:04;;;;;;;7.47;4.95;;;9.90;71.40;;;;;;4907285;29;20067;-86
2022/03/08 11:15:32;;;;;;;9.20;5.40;;;10.00;72.30;;;;;;4923956;29;20040;-87
2022/03/08 11:18:00;;;;;;;8.60;4.90;;;10.20;71.10;;;;;;4924512;29;20079;-86
2022/03/08 11:20:27;;;;;;;8.23;5.07;;;10.20;70.10;;;;;;4939513;29;20050;-89
2022/03/08 11:22:57;;;;;;;9.25;5.28;;;10.30;69.80;;;;;;4906554;29;20047;-83
2022/03/08 11:25:30;;;;;;;9.55;5.20;;;10.40;69.90;;;;;;4940453;29;20039;-88
2022/03/08 11:27:56;;;;;;;13.40;6.22;;;10.40;68.80;;;;;;4923397;29;20393;-87
2022/03/08 11:30:28;;;;;;;9.02;5.35;;;10.40;67.10;;;;;;4922768;29;20047;-85
2022/03/08 11:33:08;;;;;;;8.13;5.20;;;10.60;66.70;;;;;;4939444;29;20095;-86
2022/03/08 11:35:47;;;;;;;9.43;4.85;;;10.60;66.80;;;;;;4922959;29;20040;-85
2022/03/08 11:38:15;;;;;;;7.63;5.22;;;10.70;66.50;;;;;;4923316;29;20047;-86
2022/03/08 11:40:55;;;;;;;8.48;5.05;;;10.80;66.30;;;;;;4923293;29;20568;-85
2022/03/08 11:43:39;;;;;;;7.72;4.60;;;10.90;66.30;;;;;;4907351;29;20090;-85
2022/03/08 11:46:19;;;;;;;11.57;4.70;;;11.10;65.00;;;;;;4921712;29;20052;-84
2022/03/08 11:49:00;;;;;;;6.57;4.30;;;11.10;62.20;;;;;;4922456;29;20098;-85
2022/03/08 11:51:29;;;;;;;7.15;4.63;;;11.00;60.20;;;;;;4922718;29;20510;-87
2022/03/08 11:54:03;;;;;;;9.15;4.35;;;10.90;59.90;;;;;;4939829;29;20035;-85
2022/03/08 11:56:42;;;;;;;7.38;4.63;;;10.90;60.10;;;;;;4922287;29;20047;-86
2022/03/08 11:59:10;;;;;;;6.85;4.13;;;11.00;60.90;;;;;;4922708;29;20052;-84
2022/03/08 12:01:37;;;;;;;6.80;4.30;;;11.20;60.20;;;;;;4905706;29;20111;-85
2022/03/08 12:04:12;;;;;;;10.98;3.80;;;11.20;59.10;;;;;;4906598;29;20047;-87
2022/03/08 12:06:38;;;;;;;8.13;3.78;;;11.20;57.00;;;;;;4922217;29;20079;-84
2022/03/08 12:09:15;;;;;;;6.68;4.38;;;11.20;57.20;;;;;;4906840;29;20051;-84
2022/03/08 12:11:59;;;;;;;6.50;4.18;;;11.30;57.90;;;;;;4922037;29;20520;-85
2022/03/08 12:14:36;;;;;;;7.07;4.30;;;11.30;58.30;;;;;;4920999;29;20051;-85
2022/03/08 12:17:17;;;;;;;7.65;4.47;;;11.40;57.90;;;;;;4921644;29;20118;-84
2022/03/08 12:19:49;;;;;;;9.10;4.43;;;11.60;56.80;;;;;;4939941;29;20179;-85
2022/03/08 12:22:23;;;;;;;8.60;4.80;;;11.70;56.50;;;;;;4939595;29;20066;-85
2022/03/08 12:24:52;;;;;;;6.32;4.35;;;11.70;55.50;;;;;;4922306;29;20055;-86
2022/03/08 12:27:20;;;;;;;7.43;4.70;;;11.80;56.20;;;;;;4921176;29;20044;-85
2022/03/08 12:30:00;;;;;;;8.05;4.50;;;11.90;56.50;;;;;;4938983;29;20375;-85
2022/03/08 12:32:32;;;;;;;8.02;4.38;;;12.00;57.40;;;;;;4921120;29;20110;-86
2022/03/08 12:35:02;;;;;;;8.18;4.63;;;12.20;56.70;;;;;;4920815;29;20055;-86
2022/03/08 12:37:35;;;;;;;6.80;4.47;;;12.30;55.50;;;;;;4938906;29;20098;-86
2022/03/08 12:40:10;;;;;;;6.20;4.07;;;12.30;54.80;;;;;;4921838;29;20127;-86
2022/03/08 12:42:50;;;;;;;8.88;4.35;;;12.40;55.90;;;;;;4921010;29;20410;-86
2022/03/08 12:45:29;;;;;;;7.20;4.40;;;12.50;56.30;;;;;;4904521;29;20078;-85
2022/03/08 12:48:05;;;;;;;6.85;4.47;;;12.60;55.50;;;;;;4938822;29;20051;-83
2022/03/08 12:50:37;;;;;;;5.82;3.95;;;12.60;54.60;;;;;;4921508;29;20044;-85
2022/03/08 12:53:02;;;;;;;8.30;3.78;;;12.60;53.90;;;;;;4938941;29;20094;-86
2022/03/08 12:55:37;;;;;;;6.68;4.22;;;13.00;53.60;;;;;;4920477;29;20352;-86
2022/03/08 12:58:05;;;;;;;6.63;4.30;;;13.40;51.30;;;;;;4937680;29;20446;-86
2022/03/08 13:00:36;;;;;;;5.53;3.60;;;13.40;50.30;;;;;;4921093;29;20048;-85
2022/03/08 13:03:05;;;;;;;8.05;3.95;;;13.60;49.90;;;;;;4906199;29;20406;-85
2022/03/08 13:05:36;;;;;;;6.70;3.80;;;13.70;49.60;;;;;;4921410;29;20115;-85
2022/03/08 13:08:03;;;;;;;6.80;3.78;;;13.60;48.70;;;;;;4921396;29;20058;-85
2022/03/08 13:10:30;;;;;;;6.50;3.72;;;13.50;49.30;;;;;;4905924;29;20545;-86
2022/03/08 13:13:04;;;;;;;6.50;3.50;;;13.30;49.80;;;;;;4921741;29;20047;-86
2022/03/08 13:15:31;;;;;;;5.05;3.10;;;13.20;51.10;;;;;;4921834;29;20040;-86
2022/03/08 13:18:01;;;;;;;6.40;3.55;;;13.00;49.40;;;;;;4921401;29;20546;-86
2022/03/08 13:20:45;;;;;;;5.47;3.60;;;13.00;50.70;;;;;;4921351;29;20083;-86
2022/03/08 13:23:22;;;;;;;5.50;3.47;;;13.10;50.80;;;;;;4922069;29;20485;-87
2022/03/08 13:25:50;;;;;;;5.65;3.58;;;13.10;50.10;;;;;;4921476;29;20115;-86
2022/03/08 13:28:23;;;;;;;5.32;3.70;;;12.90;50.00;;;;;;4905656;29;20048;-85
2022/03/08 13:30:54;;;;;;;7.20;3.75;;;12.80;49.60;;;;;;4905789;29;20047;-86
2022/03/08 13:33:26;;;;;;;5.88;3.42;;;12.90;50.20;;;;;;4921396;29;20040;-85
2022/03/08 13:35:56;;;;;;;5.25;3.35;;;12.80;50.20;;;;;;4921538;29;20054;-86
2022/03/08 13:38:25;;;;;;;4.82;2.90;;;12.80;49.40;;;;;;4921280;29;20040;-86
2022/03/08 13:40:53;;;;;;;6.00;3.33;;;12.90;49.10;;;;;;4938602;29;20043;-85
2022/03/08 13:43:20;;;;;;;7.63;3.67;;;12.90;49.30;;;;;;4921360;29;20106;-85
2022/03/08 13:45:46;;;;;;;6.40;3.10;;;12.90;50.10;;;;;;4921554;29;20090;-86
2022/03/08 13:48:16;;;;;;;6.13;2.97;;;13.10;49.10;;;;;;4920939;29;20055;-85
2022/03/08 13:50:45;;;;;;;6.07;3.35;;;12.90;47.80;;;;;;4920256;29;20050;-84
2022/03/08 13:53:12;;;;;;;5.15;3.00;;;12.90;49.00;;;;;;4921415;29;20036;-86
2022/03/08 13:55:40;;;;;;;5.82;3.17;;;13.10;50.20;;;;;;4923368;29;20032;-85
2022/03/08 13:58:15;;;;;;;8.50;3.22;;;13.10;50.20;;;;;;4926173;29;20047;-86
2022/03/08 14:00:42;;;;;;;6.20;3.20;;;13.10;48.60;;;;;;4924798;29;20051;-85
2022/03/08 14:03:10;;;;;;;5.90;3.67;;;13.10;49.40;;;;;;4925104;29;20075;-86
2022/03/08 14:05:50;;;;;;;5.70;3.38;;;13.20;49.10;;;;;;4942163;29;20102;-87
2022/03/08 14:08:22;;;;;;;6.38;3.30;;;13.20;49.00;;;;;;4942174;29;20044;-87
2022/03/08 14:10:57;;;;;;;6.80;3.20;;;13.20;49.10;;;;;;4924735;29;20050;-86
2022/03/08 14:13:24;;;;;;;6.28;3.13;;;13.10;49.00;;;;;;4925400;29;20051;-86
2022/03/08 14:16:05;;;;;;;6.50;3.00;;;13.30;49.10;;;;;;4941699;29;20554;-87
2022/03/08 14:18:32;;;;;;;7.25;3.20;;;13.40;48.60;;;;;;4909571;29;20525;-86
2022/03/08 14:21:01;;;;;;;5.13;2.90;;;13.40;48.40;;;;;;4942101;29;20079;-87
2022/03/08 14:23:38;;;;;;;6.68;2.97;;;13.40;48.30;;;;;;4909316;29;20051;-86
2022/03/08 14:26:07;;;;;;;7.72;2.88;;;13.20;47.30;;;;;;4924986;29;20410;-85
2022/03/08 14:29:12;;;;;;;5.45;3.28;;;13.20;47.10;;;;;;4908577;29;20057;-87
2022/03/08 14:31:39;;;;;;;9.05;3.83;;;13.20;46.50;;;;;;4871688;29;20066;-86
2022/03/08 14:34:16;;;;;;;5.05;2.80;;;13.10;47.30;;;;;;4908848;29;20051;-87
2022/03/08 14:36:42;;;;;;;9.05;3.40;;;13.10;46.70;;;;;;4924577;29;20040;-86
2022/03/08 14:39:20;;;;;;;6.78;3.25;;;13.20;47.00;;;;;;4924594;29;20397;-87
2022/03/08 14:41:56;;;;;;;5.18;3.10;;;13.10;46.30;;;;;;4924366;29;20106;-85
2022/03/08 14:44:23;;;;;;;5.43;3.00;;;13.10;47.50;;;;;;4941176;29;20578;-87
2022/03/08 14:46:49;;;;;;;4.70;2.97;;;13.10;46.60;;;;;;4924316;29;20466;-86
2022/03/08 14:49:15;;;;;;;6.53;2.97;;;13.10;46.30;;;;;;4924392;29;20372;-86
2022/03/08 14:51:41;;;;;;;6.25;3.28;;;13.00;45.60;;;;;;4923576;29;20178;-86
2022/03/08 14:54:07;;;;;;;10.63;3.47;;;13.00;45.40;;;;;;4939908;29;20063;-88
2022/03/08 14:56:32;;;;;;;8.82;3.15;;;12.90;45.80;;;;;;4923353;29;20039;-86
2022/03/08 14:58:58;;;;;;;6.70;3.40;;;13.00;46.50;;;;;;4922977;29;20058;-86
2022/03/08 15:01:23;;;;;;;5.35;3.20;;;13.00;46.40;;;;;;4923226;29;20039;-87
2022/03/08 15:03:49;;;;;;;4.57;3.10;;;12.90;44.70;;;;;;4908401;29;20039;-86
2022/03/08 15:06:15;;;;;;;5.95;3.15;;;12.90;45.40;;;;;;4924745;29;20044;-86
2022/03/08 15:08:41;;;;;;;4.60;2.97;;;12.90;45.90;;;;;;4924057;29;20131;-86
2022/03/08 15:11:08;;;;;;;4.30;2.90;;;12.90;45.10;;;;;;4923506;29;20051;-88
2022/03/08 15:13:34;;;;;;;5.57;3.00;;;12.90;46.00;;;;;;4941416;29;20436;-87
2022/03/08 15:16:00;;;;;;;5.22;3.20;;;12.90;45.80;;;;;;4908068;29;20053;-87
2022/03/08 15:18:25;;;;;;;4.00;2.50;;;13.00;46.10;;;;;;4932914;29;20046;-87
2022/03/08 15:20:52;;;;;;;4.88;3.13;;;12.90;45.40;;;;;;4935398;29;20047;-86
2022/03/08 15:23:17;;;;;;;6.22;3.45;;;12.80;45.90;;;;;;4939023;29;20043;-86
2022/03/08 15:25:43;;;;;;;5.32;3.03;;;12.80;45.80;;;;;;4944067;29;20054;-86
2022/03/08 15:28:09;;;;;;;5.20;3.28;;;12.80;45.60;;;;;;4934776;29;20355;-86
2022/03/08 15:30:35;;;;;;;4.82;3.20;;;12.80;45.50;;;;;;4926218;29;20502;-86
2022/03/08 15:33:01;;;;;;;4.18;2.88;;;12.80;45.70;;;;;;4925005;29;20046;-87
2022/03/08 15:35:26;;;;;;;5.25;3.15;;;12.80;45.80;;;;;;4924644;29;20042;-87
2022/03/08 15:37:52;;;;;;;6.40;3.50;;;12.80;45.20;;;;;;4925068;29;20060;-88
2022/03/08 15:40:18;;;;;;;5.80;3.17;;;13.00;45.60;;;;;;4924501;29;20087;-88
2022/03/08 15:42:43;;;;;;;5.00;3.30;;;13.10;45.20;;;;;;4924129;29;20050;-86
2022/03/08 15:45:10;;;;;;;5.60;3.25;;;13.10;45.00;;;;;;4907356;29;20079;-87
2022/03/08 15:47:38;;;;;;;5.15;2.88;;;13.10;45.10;;;;;;4924682;29;20070;-88
2022/03/08 15:50:10;;;;;;;5.65;3.30;;;13.00;45.00;;;;;;4922448;29;20498;-86
2022/03/08 15:52:37;;;;;;;7.10;3.17;;;12.90;45.40;;;;;;4923196;29;20156;-87
2022/03/08 15:55:03;;;;;;;6.18;3.53;;;13.00;45.50;;;;;;4924172;29;20043;-87
2022/03/08 15:57:29;;;;;;;3.85;2.70;;;13.20;45.60;;;;;;4942196;29;20617;-88
2022/03/08 15:59:55;;;;;;;6.50;3.05;;;13.40;45.50;;;;;;4908171;29;20082;-88
2022/03/08 16:02:23;;;;;;;6.07;3.17;;;13.70;45.30;;;;;;4924497;29;20509;-90
2022/03/08 16:04:49;;;;;;;6.65;3.13;;;13.80;44.70;;;;;;4908942;29;20044;-89
2022/03/08 16:07:15;;;;;;;7.50;3.17;;;13.90;44.70;;;;;;4925473;29;20079;-89
2022/03/08 16:09:41;;;;;;;6.20;3.38;;;13.80;44.20;;;;;;4941407;29;20047;-88
2022/03/08 16:12:07;;;;;;;6.80;3.58;;;13.80;44.30;;;;;;4940934;29;20490;-88
2022/03/08 16:14:32;;;;;;;5.50;3.05;;;13.90;44.50;;;;;;4908501;29;20040;-86
2022/03/08 16:16:58;;;;;;;5.25;3.28;;;13.70;43.20;;;;;;4924022;29;20371;-88
2022/03/08 16:19:24;;;;;;;6.63;3.40;;;13.70;43.40;;;;;;4923938;29;20054;-86
2022/03/08 16:21:50;;;;;;;7.30;3.72;;;13.60;43.40;;;;;;4924478;29;20046;-88
2022/03/08 16:24:16;;;;;;;6.13;2.90;;;13.60;44.00;;;;;;4941762;29;20051;-88
2022/03/08 16:26:44;;;;;;;3.70;2.80;;;13.30;43.40;;;;;;4924863;29;20042;-89
2022/03/08 16:29:10;;;;;;;7.55;2.92;;;13.20;43.80;;;;;;4923452;29;20061;-88
2022/03/08 16:31:36;;;;;;;6.60;3.60;;;13.10;44.40;;;;;;4907009;29;20041;-87
2022/03/08 16:34:03;;;;;;;4.95;3.30;;;13.00;45.10;;;;;;4938794;29;20070;-87
2022/03/08 16:36:30;;;;;;;6.13;3.30;;;12.70;45.30;;;;;;4906281;29;20050;-87
2022/03/08 16:38:55;;;;;;;6.18;3.25;;;12.40;45.60;;;;;;4906494;29;20055;-88
2022/03/08 16:41:21;;;;;;;6.55;3.30;;;12.20;45.80;;;;;;4922046;29;20346;-87
2022/03/08 16:43:48;;;;;;;5.15;2.88;;;11.90;46.20;;;;;;4906639;29;20043;-86
2022/03/08 16:46:15;;;;;;;5.38;2.80;;;11.70;46.90;;;;;;4922672;29;20494;-87
2022/03/08 16:48:42;;;;;;;6.28;3.10;;;11.50;47.30;;;;;;4922307;29;20394;-87